createdAt,value
2016-11-14T00:00:12.879Z,1011.9
2016-11-14T00:00:33.426Z,1011.9
2016-11-14T00:00:53.987Z,1011.9
2016-11-14T00:01:14.523Z,1011.9
2016-11-14T00:01:35.054Z,1011.9
2016-11-14T00:01:55.597Z,1011.9
2016-11-14T00:02:16.135Z,1011.9
2016-11-14T00:02:36.678Z,1011.9
2016-11-14T00:02:57.212Z,1011.9
2016-11-14T00:03:17.770Z,1011.9
2016-11-14T00:03:38.318Z,1011.9
2016-11-14T00:03:58.858Z,1011.9
2016-11-14T00:04:19.440Z,1011.9
2016-11-14T00:04:40.007Z,1011.9
2016-11-14T00:05:00.544Z,1011.9
2016-11-14T00:05:21.119Z,1011.9
2016-11-14T00:05:41.706Z,1011.9
2016-11-14T00:06:02.304Z,1011.9
2016-11-14T00:06:22.847Z,1011.8
2016-11-14T00:06:43.391Z,1011.8
2016-11-14T00:07:03.937Z,1011.8
2016-11-14T00:07:24.480Z,1011.9
2016-11-14T00:07:45.071Z,1011.8
2016-11-14T00:08:05.643Z,1011.9
2016-11-14T00:08:26.179Z,1011.9
2016-11-14T00:08:46.816Z,1011.8
2016-11-14T00:09:07.393Z,1011.8
2016-11-14T00:09:27.953Z,1011.9
2016-11-14T00:09:48.496Z,1011.9
2016-11-14T00:10:09.034Z,1011.8
2016-11-14T00:10:29.640Z,1011.9
2016-11-14T00:10:50.174Z,1011.9
2016-11-14T00:11:10.727Z,1011.9
2016-11-14T00:11:31.306Z,1011.9
2016-11-14T00:11:51.859Z,1011.8
2016-11-14T00:12:12.438Z,1011.8
2016-11-14T00:12:32.969Z,1011.8
2016-11-14T00:12:53.566Z,1011.8
2016-11-14T00:13:14.113Z,1011.8
2016-11-14T00:13:34.704Z,1011.8
2016-11-14T00:13:55.364Z,1011.8
2016-11-14T00:14:15.888Z,1011.8
2016-11-14T00:14:36.427Z,1011.8
2016-11-14T00:14:56.968Z,1011.8
2016-11-14T00:15:17.514Z,1011.8
2016-11-14T00:15:38.102Z,1011.8
2016-11-14T00:15:58.646Z,1011.9
2016-11-14T00:16:19.203Z,1011.8
2016-11-14T00:16:39.754Z,1011.9
2016-11-14T00:17:00.359Z,1011.9
2016-11-14T00:17:20.909Z,1011.9
2016-11-14T00:20:39.150Z,1011.9
2016-11-14T00:20:59.687Z,1012
2016-11-14T00:21:20.233Z,1012
2016-11-14T00:21:40.810Z,1012
2016-11-14T00:22:01.348Z,1012
2016-11-14T00:22:21.901Z,1011.9
2016-11-14T00:22:42.433Z,1012
2016-11-14T00:23:03.000Z,1011.9
2016-11-14T00:23:23.526Z,1012
2016-11-14T00:23:44.068Z,1012
2016-11-14T00:24:04.612Z,1012
2016-11-14T00:24:25.197Z,1012
2016-11-14T00:24:45.734Z,1012
2016-11-14T00:25:06.272Z,1012
2016-11-14T00:25:26.794Z,1012
2016-11-14T00:25:47.334Z,1012
2016-11-14T00:26:07.909Z,1012
2016-11-14T00:26:28.456Z,1012
2016-11-14T00:26:49.011Z,1012
2016-11-14T00:27:09.544Z,1012
2016-11-14T00:27:30.119Z,1012
2016-11-14T00:27:50.673Z,1012
2016-11-14T00:28:11.231Z,1012
2016-11-14T00:28:31.774Z,1012
2016-11-14T00:28:52.323Z,1012
2016-11-14T00:29:12.887Z,1012
2016-11-14T00:29:33.434Z,1012
2016-11-14T00:29:53.972Z,1012
2016-11-14T00:30:14.541Z,1012
2016-11-14T00:30:35.069Z,1012
2016-11-14T00:30:55.600Z,1012
2016-11-14T00:31:16.162Z,1012
2016-11-14T00:31:36.752Z,1012
2016-11-14T00:31:57.292Z,1012
2016-11-14T00:32:17.830Z,1012
2016-11-14T00:32:38.372Z,1012
2016-11-14T00:32:58.909Z,1012
2016-11-14T00:33:19.456Z,1012
2016-11-14T00:33:40.001Z,1012
2016-11-14T00:34:00.552Z,1012
2016-11-14T00:34:21.093Z,1012
2016-11-14T00:34:41.633Z,1012
2016-11-14T00:35:02.208Z,1012
2016-11-14T00:35:22.742Z,1012.1
2016-11-14T00:35:43.293Z,1012.1
2016-11-14T00:36:03.837Z,1012
2016-11-14T00:36:24.385Z,1012
2016-11-14T00:36:44.942Z,1012.1
2016-11-14T00:37:05.488Z,1012
2016-11-14T00:37:26.069Z,1012
2016-11-14T00:37:46.642Z,1012.1
2016-11-14T00:38:07.198Z,1012.1
2016-11-14T00:38:27.746Z,1012.1
2016-11-14T00:38:48.305Z,1012.1
2016-11-14T00:39:08.842Z,1012
2016-11-14T00:39:29.385Z,1012.1
2016-11-14T00:39:49.941Z,1012.1
2016-11-14T00:40:10.470Z,1012.1
2016-11-14T00:40:31.001Z,1012.1
2016-11-14T18:03:59.398Z,1011.8
2016-11-14T18:04:19.966Z,1011.8
2016-11-14T18:04:40.580Z,1011.8
2016-11-14T18:05:01.127Z,1011.8
2016-11-14T18:05:21.656Z,1011.8
2016-11-14T18:05:42.201Z,1011.8
2016-11-14T18:06:02.770Z,1011.8
2016-11-14T18:06:23.298Z,1011.8
2016-11-14T18:06:44.096Z,1011.8
2016-11-14T18:07:04.624Z,1011.8
2016-11-14T18:07:25.154Z,1011.8
2016-11-14T18:07:45.680Z,1011.7
2016-11-14T18:08:06.235Z,1011.7
2016-11-14T18:08:26.809Z,1011.7
2016-11-14T18:08:47.370Z,1011.8
2016-11-14T18:09:07.929Z,1011.8
2016-11-14T18:09:28.555Z,1011.7
2016-11-14T18:09:49.099Z,1011.8
2016-11-14T18:10:09.640Z,1011.8
2016-11-14T18:10:30.181Z,1011.8
2016-11-14T18:10:50.720Z,1011.8
2016-11-14T18:11:11.249Z,1011.7
2016-11-14T18:11:31.852Z,1011.8
2016-11-14T18:11:52.404Z,1011.8
2016-11-14T18:12:12.951Z,1011.8
2016-11-14T18:12:33.489Z,1011.8
2016-11-14T18:12:54.019Z,1011.8
2016-11-14T18:13:14.563Z,1011.8
2016-11-14T18:13:35.109Z,1011.8
2016-11-14T18:13:55.641Z,1011.8
2016-11-14T18:14:16.177Z,1011.8
2016-11-14T18:14:36.770Z,1011.8
2016-11-14T18:14:57.311Z,1011.8
2016-11-14T18:15:17.842Z,1011.8
2016-11-14T18:15:38.391Z,1011.8
2016-11-14T18:15:58.921Z,1011.8
2016-11-14T18:16:19.496Z,1011.8
2016-11-14T18:16:40.070Z,1011.8
2016-11-14T18:17:00.611Z,1011.8
2016-11-14T18:17:21.155Z,1011.8
2016-11-14T18:18:24.179Z,1011.8
2016-11-14T18:18:48.882Z,1011.8
2016-11-14T18:19:14.497Z,1011.8
2016-11-14T18:19:35.486Z,1011.8
2016-11-14T18:19:56.034Z,1011.8
2016-11-14T18:20:16.579Z,1011.8
2016-11-14T18:20:37.147Z,1011.8
2016-11-14T18:20:57.694Z,1011.8
2016-11-14T18:21:18.286Z,1011.8
2016-11-14T18:21:38.832Z,1011.8
2016-11-14T18:22:00.750Z,1011.8
2016-11-14T18:22:21.290Z,1011.8
2016-11-14T18:22:41.905Z,1011.8
2016-11-14T18:23:02.443Z,1011.9
2016-11-14T18:23:23.061Z,1011.8
2016-11-14T18:23:43.764Z,1011.8
2016-11-14T18:24:04.336Z,1011.8
2016-11-14T18:24:24.873Z,1011.8
2016-11-14T18:24:45.414Z,1011.8
2016-11-14T18:25:05.975Z,1011.8
2016-11-14T18:25:26.534Z,1011.8
2016-11-14T18:25:47.073Z,1011.8
2016-11-14T18:26:07.644Z,1011.8
2016-11-14T18:26:28.192Z,1011.8
2016-11-14T18:26:48.754Z,1011.8
2016-11-14T18:27:09.306Z,1011.8
2016-11-14T18:27:29.856Z,1011.8
2016-11-14T18:27:50.393Z,1011.7
2016-11-14T18:28:10.960Z,1011.7
2016-11-14T18:28:31.583Z,1011.8
2016-11-14T18:28:52.129Z,1011.8
2016-11-14T18:29:12.832Z,1011.7
2016-11-14T18:29:33.601Z,1011.8
2016-11-14T18:29:54.149Z,1011.8
2016-11-14T18:30:14.766Z,1011.8
2016-11-14T18:30:35.368Z,1011.7
2016-11-14T18:30:55.918Z,1011.7
2016-11-14T18:31:16.518Z,1011.7
2016-11-14T18:31:37.172Z,1011.7
2016-11-14T18:31:57.837Z,1011.7
2016-11-14T18:32:18.375Z,1011.7
2016-11-14T18:32:38.933Z,1011.7
2016-11-14T18:32:59.489Z,1011.7
2016-11-14T18:33:20.044Z,1011.7
2016-11-14T18:33:40.616Z,1011.7
2016-11-14T18:34:01.157Z,1011.7
2016-11-14T18:34:21.699Z,1011.7
2016-11-14T18:34:42.281Z,1011.7
2016-11-14T18:35:02.824Z,1011.7
2016-11-14T18:35:23.356Z,1011.7
2016-11-14T18:35:43.889Z,1011.7
2016-11-14T18:36:04.452Z,1011.7
2016-11-14T18:36:24.998Z,1011.7
2016-11-14T18:36:45.636Z,1011.7
2016-11-14T18:37:06.425Z,1011.7
2016-11-14T18:37:26.990Z,1011.7
2016-11-14T18:37:47.558Z,1011.7
2016-11-14T18:38:08.129Z,1011.7
2016-11-14T18:38:28.658Z,1011.6
2016-11-14T18:38:49.220Z,1011.7
2016-11-14T18:39:09.824Z,1011.7
2016-11-14T18:39:30.362Z,1011.7
2016-11-14T18:39:50.879Z,1011.7
2016-11-14T18:40:11.433Z,1011.7
2016-11-14T18:40:31.983Z,1011.7
2016-11-14T18:40:52.928Z,1011.7
2016-11-14T18:41:13.466Z,1011.6
2016-11-14T18:41:34.012Z,1011.7
2016-11-14T18:41:54.552Z,1011.7
2016-11-14T18:42:15.466Z,1011.7
2016-11-14T18:42:36.038Z,1011.7
2016-11-14T18:42:56.596Z,1011.7
2016-11-14T18:43:17.163Z,1011.7
2016-11-14T18:43:37.716Z,1011.7
2016-11-14T18:43:58.281Z,1011.7
2016-11-14T18:44:18.892Z,1011.6
2016-11-14T18:44:39.448Z,1011.7
2016-11-14T18:44:59.978Z,1011.6
2016-11-14T18:45:20.543Z,1011.6
2016-11-14T18:45:41.095Z,1011.6
2016-11-14T18:46:01.632Z,1011.6
2016-11-14T18:46:22.191Z,1011.6
2016-11-14T18:46:42.764Z,1011.6
2016-11-14T18:47:03.311Z,1011.6
2016-11-14T18:47:23.848Z,1011.6
2016-11-14T18:47:44.377Z,1011.6
2016-11-14T18:48:04.904Z,1011.6
2016-11-14T18:48:25.802Z,1011.6
2016-11-14T18:48:46.370Z,1011.6
2016-11-14T18:49:06.949Z,1011.6
2016-11-14T18:49:27.610Z,1011.6
2016-11-14T18:49:48.176Z,1011.6
2016-11-14T18:50:08.727Z,1011.6
2016-11-14T18:50:29.273Z,1011.6
2016-11-14T18:50:49.820Z,1011.6
2016-11-14T18:51:10.379Z,1011.6
2016-11-14T18:51:30.923Z,1011.6
2016-11-14T18:51:51.455Z,1011.6
2016-11-14T18:52:12.069Z,1011.6
2016-11-14T18:52:32.625Z,1011.6
2016-11-14T18:52:53.190Z,1011.6
2016-11-14T18:53:13.745Z,1011.6
2016-11-14T18:53:34.304Z,1011.6
2016-11-14T18:53:54.968Z,1011.6
2016-11-14T18:54:15.542Z,1011.6
2016-11-14T18:54:36.112Z,1011.6
2016-11-14T18:54:56.662Z,1011.6
2016-11-14T18:55:17.232Z,1011.5
2016-11-14T18:55:37.807Z,1011.6
2016-11-14T18:55:58.845Z,1011.6
2016-11-14T18:56:19.388Z,1011.5
2016-11-14T18:56:39.936Z,1011.5
2016-11-14T18:57:00.487Z,1011.5
2016-11-14T18:57:21.065Z,1011.5
2016-11-14T18:57:41.665Z,1011.6
2016-11-14T18:58:02.240Z,1011.5
2016-11-14T18:58:22.763Z,1011.5
2016-11-14T18:58:43.328Z,1011.5
2016-11-14T18:59:03.877Z,1011.5
2016-11-14T18:59:24.413Z,1011.5
2016-11-14T18:59:44.977Z,1011.5
2016-11-14T19:00:05.512Z,1011.5
2016-11-14T19:00:26.044Z,1011.5
2016-11-14T19:00:46.574Z,1011.5
2016-11-14T19:01:07.113Z,1011.5
2016-11-14T19:01:27.648Z,1011.5
2016-11-14T19:01:48.187Z,1011.5
2016-11-14T19:02:08.740Z,1011.5
2016-11-14T19:02:29.307Z,1011.5
2016-11-14T19:02:49.857Z,1011.5
2016-11-14T19:03:10.612Z,1011.5
2016-11-14T19:03:31.153Z,1011.5
2016-11-14T19:03:51.710Z,1011.5
2016-11-14T19:04:12.232Z,1011.5
2016-11-14T19:04:32.780Z,1011.4
2016-11-14T19:04:53.333Z,1011.5
2016-11-14T19:05:13.881Z,1011.4
2016-11-14T19:05:34.427Z,1011.5
2016-11-14T19:05:54.977Z,1011.4
2016-11-14T19:06:15.545Z,1011.5
2016-11-14T19:06:36.115Z,1011.5
2016-11-14T19:06:56.665Z,1011.5
2016-11-14T19:07:17.195Z,1011.5
2016-11-14T19:07:37.774Z,1011.4
2016-11-14T19:07:58.310Z,1011.4
2016-11-14T19:08:18.851Z,1011.4
2016-11-14T19:08:39.439Z,1011.5
2016-11-14T19:08:59.993Z,1011.5
2016-11-14T19:09:20.580Z,1011.4
2016-11-14T19:09:41.147Z,1011.4
2016-11-14T19:10:01.682Z,1011.4
2016-11-14T19:10:22.258Z,1011.4
2016-11-14T19:10:42.811Z,1011.4
2016-11-14T19:11:03.387Z,1011.4
2016-11-14T19:11:23.954Z,1011.4
2016-11-14T19:11:44.510Z,1011.4
2016-11-14T19:12:05.096Z,1011.4
2016-11-14T19:12:25.638Z,1011.4
2016-11-14T19:12:46.225Z,1011.4
2016-11-14T19:13:06.774Z,1011.4
2016-11-14T19:13:27.290Z,1011.4
2016-11-14T19:13:47.858Z,1011.4
2016-11-14T19:14:08.394Z,1011.3
2016-11-14T19:14:28.932Z,1011.4
2016-11-14T19:14:49.499Z,1011.3
2016-11-14T19:15:10.042Z,1011.3
2016-11-14T19:15:30.603Z,1011.4
2016-11-14T19:15:51.141Z,1011.3
2016-11-14T19:16:11.714Z,1011.3
2016-11-14T19:16:32.260Z,1011.3
2016-11-14T19:16:52.794Z,1011.3
2016-11-14T19:17:33.089Z,1011.3
2016-11-14T19:17:53.644Z,1011.3
2016-11-14T19:18:14.177Z,1011.3
2016-11-14T19:18:34.788Z,1011.3
2016-11-14T19:18:55.355Z,1011.3
2016-11-14T19:19:15.889Z,1011.3
2016-11-14T19:19:36.425Z,1011.3
2016-11-14T19:19:57.214Z,1011.3
2016-11-14T19:20:17.752Z,1011.3
2016-11-14T19:20:38.294Z,1011.3
2016-11-14T19:20:58.838Z,1011.3
2016-11-14T19:21:19.420Z,1011.3
2016-11-14T19:21:39.957Z,1011.3
2016-11-14T19:22:00.531Z,1011.3
2016-11-14T19:22:21.095Z,1011.3
2016-11-14T19:22:41.626Z,1011.3
2016-11-14T19:23:02.158Z,1011.3
2016-11-14T19:23:22.707Z,1011.3
2016-11-14T19:23:43.253Z,1011.3
2016-11-14T19:24:03.796Z,1011.3
2016-11-14T19:24:24.324Z,1011.3
2016-11-14T19:24:44.872Z,1011.2
2016-11-14T19:25:05.469Z,1011.3
2016-11-14T19:25:26.021Z,1011.3
2016-11-14T19:25:46.570Z,1011.2
2016-11-14T19:26:07.120Z,1011.2
2016-11-14T19:26:27.653Z,1011.3
2016-11-14T19:26:48.186Z,1011.2
2016-11-14T19:27:08.743Z,1011.3
2016-11-14T19:27:29.862Z,1011.2
2016-11-14T19:27:50.400Z,1011.3
2016-11-14T19:28:10.923Z,1011.2
2016-11-14T19:28:31.488Z,1011.2
2016-11-14T19:28:52.015Z,1011.2
2016-11-14T19:29:12.552Z,1011.2
2016-11-14T19:29:33.093Z,1011.2
2016-11-14T19:29:53.632Z,1011.2
2016-11-14T19:30:14.174Z,1011.2
2016-11-14T19:30:34.716Z,1011.2
2016-11-14T19:30:55.253Z,1011.2
2016-11-14T19:31:15.785Z,1011.2
2016-11-14T19:31:36.330Z,1011.2
2016-11-14T19:31:56.869Z,1011.2
2016-11-14T19:32:17.441Z,1011.2
2016-11-14T19:32:37.974Z,1011.2
2016-11-14T19:32:58.525Z,1011.2
2016-11-14T19:33:19.066Z,1011.2
2016-11-14T19:33:39.647Z,1011.2
2016-11-14T19:34:00.186Z,1011.2
2016-11-14T19:34:20.760Z,1011.2
2016-11-14T19:34:41.290Z,1011.2
2016-11-14T19:35:01.862Z,1011.2
2016-11-14T19:35:22.395Z,1011.2
2016-11-14T19:35:42.922Z,1011.2
2016-11-14T19:36:03.454Z,1011.2
2016-11-14T19:36:24.000Z,1011.2
2016-11-14T19:36:44.544Z,1011.2
2016-11-14T19:37:05.065Z,1011.2
2016-11-14T19:37:25.606Z,1011.2
2016-11-14T19:37:46.175Z,1011.2
2016-11-14T19:38:06.725Z,1011.2
2016-11-14T19:38:27.259Z,1011.2
2016-11-14T19:38:47.790Z,1011.2
2016-11-14T19:39:08.332Z,1011.2
2016-11-14T19:39:28.869Z,1011.2
2016-11-14T19:39:49.416Z,1011.2
2016-11-14T19:40:09.948Z,1011.1
2016-11-14T19:40:30.490Z,1011.2
2016-11-14T19:40:51.034Z,1011.1
2016-11-14T19:41:11.582Z,1011.1
2016-11-14T19:41:32.106Z,1011.1
2016-11-14T19:41:52.743Z,1011.2
2016-11-14T19:42:13.310Z,1011.1
2016-11-14T19:42:33.844Z,1011.1
2016-11-14T19:42:54.432Z,1011.1
2016-11-14T19:43:14.964Z,1011.1
2016-11-14T19:43:35.486Z,1011.1
2016-11-14T19:43:56.018Z,1011.1
2016-11-14T19:44:16.549Z,1011.1
2016-11-14T19:44:37.083Z,1011.1
2016-11-14T19:44:57.653Z,1011.1
2016-11-14T19:45:18.453Z,1011.1
2016-11-14T19:45:39.015Z,1011
2016-11-14T19:45:59.552Z,1011.1
2016-11-14T19:46:20.203Z,1011.1
2016-11-14T19:46:48.718Z,1011.1
2016-11-14T19:47:09.340Z,1011.1
2016-11-14T19:47:29.874Z,1011
2016-11-14T19:47:50.978Z,1011
2016-11-14T19:48:11.515Z,1011
2016-11-14T19:48:32.050Z,1011
2016-11-14T19:48:52.591Z,1011
2016-11-14T19:49:13.369Z,1011
2016-11-14T19:49:37.723Z,1011
2016-11-14T19:49:59.014Z,1011
2016-11-14T19:50:19.716Z,1011
2016-11-14T19:50:40.536Z,1011
2016-11-14T19:51:01.122Z,1011
2016-11-14T19:51:21.698Z,1011
2016-11-14T19:51:42.240Z,1011
2016-11-14T19:52:02.810Z,1011
2016-11-14T19:52:23.343Z,1011
2016-11-14T19:52:43.887Z,1011
2016-11-14T19:53:04.423Z,1011
2016-11-14T19:53:24.955Z,1011
2016-11-14T19:53:45.495Z,1011
2016-11-14T19:54:06.029Z,1011
2016-11-14T19:54:26.559Z,1011
2016-11-14T19:54:47.149Z,1011
2016-11-14T19:55:07.684Z,1011
2016-11-14T19:55:28.325Z,1011
2016-11-14T19:55:48.854Z,1011
2016-11-14T19:56:09.440Z,1011
2016-11-14T19:56:29.981Z,1011
2016-11-14T19:56:50.519Z,1011
2016-11-14T19:57:11.064Z,1011
2016-11-14T19:57:31.603Z,1011
2016-11-14T19:57:52.163Z,1011
2016-11-14T19:58:12.712Z,1011
2016-11-14T19:58:33.253Z,1011
2016-11-14T19:58:53.787Z,1011
2016-11-14T19:59:14.337Z,1011
2016-11-14T19:59:34.879Z,1011
2016-11-14T19:59:55.430Z,1011
2016-11-14T20:00:15.969Z,1011
2016-11-14T20:00:36.501Z,1011
2016-11-14T20:00:57.070Z,1011
2016-11-14T20:01:17.616Z,1011
2016-11-14T20:01:38.153Z,1011
2016-11-14T20:01:59.265Z,1011
2016-11-14T20:02:19.852Z,1011
2016-11-14T20:02:40.391Z,1011
2016-11-14T20:03:00.960Z,1011
2016-11-14T20:03:21.492Z,1011
2016-11-14T20:03:42.034Z,1011
2016-11-14T20:04:02.570Z,1011
2016-11-14T20:04:23.109Z,1011
2016-11-14T20:04:43.636Z,1011
2016-11-14T20:05:04.172Z,1011
2016-11-14T20:05:25.078Z,1011
2016-11-14T20:05:45.620Z,1011
2016-11-14T20:06:06.148Z,1011
2016-11-14T20:06:26.685Z,1011
2016-11-14T20:06:47.226Z,1011
2016-11-14T20:07:07.754Z,1011
2016-11-14T20:07:28.299Z,1011
2016-11-14T20:07:48.850Z,1010.9
2016-11-14T20:08:09.396Z,1011
2016-11-14T20:08:29.940Z,1010.9
2016-11-14T20:08:50.479Z,1010.9
2016-11-14T20:09:11.047Z,1010.9
2016-11-14T20:09:31.590Z,1010.9
2016-11-14T20:09:52.119Z,1010.9
2016-11-14T20:10:13.190Z,1010.9
2016-11-14T20:10:33.745Z,1010.9
2016-11-14T20:10:54.958Z,1010.9
2016-11-14T20:11:15.960Z,1010.9
2016-11-14T20:11:36.537Z,1010.9
2016-11-14T20:11:57.061Z,1010.9
2016-11-14T20:12:17.591Z,1010.9
2016-11-14T20:12:38.128Z,1010.9
2016-11-14T20:12:58.670Z,1010.9
2016-11-14T20:13:19.240Z,1010.8
2016-11-14T20:13:43.664Z,1010.8
2016-11-14T20:14:04.234Z,1010.9
2016-11-14T20:14:24.800Z,1010.9
2016-11-14T20:14:45.408Z,1010.8
2016-11-14T20:15:05.952Z,1010.8
2016-11-14T20:15:26.545Z,1010.8
2016-11-14T20:15:47.080Z,1010.8
2016-11-14T20:16:09.241Z,1010.8
2016-11-14T20:16:30.396Z,1010.8
2016-11-14T20:16:51.635Z,1010.8
2016-11-14T20:17:12.198Z,1010.8
2016-11-14T20:17:32.786Z,1010.8
2016-11-14T20:17:53.795Z,1010.8
2016-11-14T20:18:14.341Z,1010.8
2016-11-14T20:18:34.871Z,1010.8
2016-11-14T20:18:55.403Z,1010.7
2016-11-14T20:19:16.175Z,1010.8
2016-11-14T20:19:36.929Z,1010.8
2016-11-14T20:19:58.412Z,1010.7
2016-11-14T20:20:19.352Z,1010.7
